createdAt,value
2022-11-21T00:04:46.961Z,20.80
2022-11-21T00:09:49.968Z,23.60
2022-11-21T00:14:53.077Z,22.80
2022-11-21T00:19:56.055Z,19.00
2022-11-21T00:24:59.343Z,18.80
2022-11-21T00:30:02.211Z,15.20
2022-11-21T00:35:06.635Z,13.10
2022-11-21T00:40:10.505Z,19.80
2022-11-21T00:45:13.469Z,21.40
2022-11-21T00:50:16.583Z,16.10
2022-11-21T00:55:19.482Z,17.80
2022-11-21T01:00:22.489Z,16.50
2022-11-21T01:05:25.392Z,16.70
2022-11-21T01:10:28.296Z,24.90
2022-11-21T01:15:31.506Z,17.70
2022-11-21T01:20:34.411Z,16.00
2022-11-21T01:25:37.520Z,20.40
2022-11-21T01:30:40.529Z,24.10
2022-11-21T01:35:43.532Z,24.30
2022-11-21T01:40:46.537Z,23.90
2022-11-21T01:45:55.487Z,28.30
2022-11-21T01:51:05.916Z,20.20
2022-11-21T01:56:09.814Z,28.90
2022-11-21T02:01:13.282Z,28.80
2022-11-21T02:06:16.829Z,20.00
2022-11-21T02:11:41.294Z,29.70
2022-11-21T02:16:44.549Z,29.20
2022-11-21T02:22:12.529Z,20.40
2022-11-21T02:27:16.664Z,22.20
2022-11-21T02:32:33.916Z,16.50
2022-11-21T02:37:37.747Z,27.40
2022-11-21T02:43:03.889Z,25.60
2022-11-21T02:48:07.822Z,21.10
2022-11-21T02:53:13.606Z,26.30
2022-11-21T02:58:16.699Z,32.50
2022-11-21T03:03:19.702Z,24.70
2022-11-21T03:08:22.914Z,31.30
2022-11-21T03:13:25.819Z,32.00
2022-11-21T03:18:28.825Z,20.40
2022-11-21T03:23:31.933Z,24.70
2022-11-21T03:28:35.102Z,27.20
2022-11-21T03:33:38.048Z,19.70
2022-11-21T03:38:41.263Z,21.10
2022-11-21T03:43:44.266Z,22.80
2022-11-21T03:48:47.475Z,31.00
2022-11-21T03:53:50.687Z,24.80
2022-11-21T03:58:54.629Z,27.90
2022-11-21T04:03:58.726Z,22.00
2022-11-21T04:09:01.753Z,39.10
2022-11-21T04:14:04.863Z,22.00
2022-11-21T04:19:07.868Z,33.80
2022-11-21T04:24:11.188Z,31.20
2022-11-21T04:29:14.189Z,33.90
2022-11-21T04:34:17.404Z,33.70
2022-11-21T04:39:20.304Z,29.20
2022-11-21T04:44:23.313Z,27.10
2022-11-21T04:49:26.214Z,29.90
2022-11-21T04:54:29.423Z,25.00
2022-11-21T04:59:32.534Z,38.60
2022-11-21T05:04:35.540Z,22.10
2022-11-21T05:09:38.548Z,34.50
2022-11-21T05:14:41.552Z,36.70
2022-11-21T05:19:44.562Z,26.50
2022-11-21T05:24:47.566Z,34.10
2022-11-21T05:29:50.579Z,21.60
2022-11-21T05:34:53.682Z,32.20
2022-11-21T05:39:56.796Z,31.80
2022-11-21T05:44:59.797Z,27.20
2022-11-21T05:50:02.802Z,23.60
2022-11-21T05:55:06.171Z,29.30
2022-11-21T06:00:10.017Z,35.40
2022-11-21T06:05:12.953Z,23.80
2022-11-21T06:10:18.008Z,26.50
2022-11-21T06:15:21.009Z,25.80
2022-11-21T06:20:24.120Z,31.50
2022-11-21T06:25:27.125Z,27.60
2022-11-21T06:30:30.233Z,29.40
2022-11-21T06:35:37.343Z,34.70
2022-11-21T06:40:41.061Z,30.10
2022-11-21T06:45:44.065Z,31.20
2022-11-21T06:50:47.166Z,36.60
2022-11-21T06:55:50.286Z,47.40
2022-11-21T07:00:53.525Z,39.90
2022-11-21T07:06:00.907Z,34.30
2022-11-21T07:16:32.619Z,41.20
2022-11-21T07:21:35.734Z,32.10
2022-11-21T07:26:38.749Z,32.70
2022-11-21T07:31:41.848Z,37.70
2022-11-21T07:36:45.064Z,37.40
2022-11-21T07:41:48.272Z,29.50
2022-11-21T07:46:55.754Z,34.90
2022-11-21T07:51:58.684Z,39.40
2022-11-21T07:57:01.794Z,35.30
2022-11-21T08:02:05.166Z,38.50
2022-11-21T08:07:10.910Z,35.90
2022-11-21T08:12:14.507Z,37.10
2022-11-21T08:17:18.833Z,33.90
2022-11-21T08:22:21.875Z,37.50
2022-11-21T08:27:24.952Z,32.90
2022-11-21T08:32:27.959Z,43.60
2022-11-21T08:37:31.243Z,26.50
2022-11-21T08:42:34.381Z,40.30
2022-11-21T08:47:37.716Z,34.50
2022-11-21T08:52:41.009Z,43.60
2022-11-21T08:57:44.124Z,28.50
2022-11-21T09:02:47.226Z,35.30
2022-11-21T09:07:57.521Z,39.60
2022-11-21T09:13:00.724Z,37.60
2022-11-21T09:18:04.794Z,29.00
2022-11-21T09:23:13.532Z,39.90
2022-11-21T09:28:16.593Z,38.40
2022-11-21T09:33:19.807Z,42.00
2022-11-21T09:38:24.418Z,37.60
2022-11-21T09:43:55.512Z,43.50
2022-11-21T09:49:07.738Z,37.90
2022-11-21T09:54:10.744Z,34.20
2022-11-21T09:59:29.417Z,35.90
2022-11-21T10:04:32.623Z,37.20
2022-11-21T10:10:23.668Z,41.10
2022-11-21T10:15:51.776Z,30.20
2022-11-21T10:21:18.008Z,39.80
2022-11-21T10:26:39.343Z,34.50
2022-11-21T10:31:43.841Z,39.00
2022-11-21T10:37:01.754Z,44.10
2022-11-21T10:42:23.150Z,38.30
2022-11-21T10:47:33.885Z,33.20
2022-11-21T10:52:45.603Z,28.10
2022-11-21T10:57:51.145Z,35.60
2022-11-21T11:02:57.019Z,28.80
2022-11-21T11:08:03.505Z,32.70
2022-11-21T11:19:35.644Z,34.30
2022-11-21T11:24:57.483Z,24.10
2022-11-21T11:30:07.558Z,33.30
2022-11-21T11:35:13.615Z,36.60
2022-11-21T11:40:37.224Z,35.70
2022-11-21T11:46:25.389Z,37.20
2022-11-21T11:51:38.636Z,26.00
2022-11-21T11:56:43.596Z,25.70
2022-11-21T12:01:52.816Z,40.40
2022-11-21T12:12:42.678Z,23.60
2022-11-21T12:17:54.706Z,35.10
2022-11-21T12:22:58.120Z,31.90
2022-11-21T12:28:03.472Z,37.40
2022-11-21T12:33:22.663Z,37.30
2022-11-21T12:39:06.524Z,35.00
2022-11-21T12:44:09.536Z,35.00
2022-11-21T12:49:51.984Z,38.20
2022-11-21T12:55:00.911Z,39.60
2022-11-21T13:00:24.084Z,27.60
2022-11-21T13:05:30.687Z,32.20
2022-11-21T13:10:34.375Z,34.80
2022-11-21T13:16:06.700Z,35.10
2022-11-21T13:21:42.266Z,36.80
2022-11-21T13:26:51.545Z,34.60
2022-11-21T13:31:54.534Z,37.40
2022-11-21T13:36:57.840Z,40.50
2022-11-21T13:42:22.658Z,38.40
2022-11-21T13:47:25.920Z,32.60
2022-11-21T13:52:40.978Z,29.00
2022-11-21T13:57:53.182Z,41.20
2022-11-21T14:03:08.887Z,36.70
2022-11-21T14:08:27.770Z,36.00
2022-11-21T14:13:34.605Z,36.90
2022-11-21T14:18:39.086Z,37.60
2022-11-21T14:23:44.463Z,42.30
2022-11-21T14:28:48.179Z,35.00
2022-11-21T14:33:58.451Z,41.60
2022-11-21T14:39:35.492Z,35.20
2022-11-21T14:44:31.843Z,28.70
2022-11-21T14:49:35.023Z,41.50
2022-11-21T14:55:06.126Z,39.90
2022-11-21T15:00:36.112Z,36.70
2022-11-21T15:06:08.624Z,41.10
2022-11-21T15:11:03.493Z,35.30
2022-11-21T15:16:06.653Z,35.00
2022-11-21T15:21:14.574Z,38.80
2022-11-21T15:26:33.463Z,38.00
2022-11-21T15:31:36.463Z,43.50
2022-11-21T15:36:39.572Z,40.40
2022-11-21T15:41:42.574Z,41.70
2022-11-21T15:46:47.183Z,37.10
2022-11-21T15:52:06.630Z,42.50
2022-11-21T15:57:10.811Z,42.60
2022-11-21T16:02:14.665Z,41.50
2022-11-21T16:07:17.870Z,46.80
2022-11-21T16:12:21.102Z,48.70
2022-11-21T16:17:24.103Z,44.90
2022-11-21T16:22:27.113Z,46.30
2022-11-21T16:27:32.538Z,44.40
2022-11-21T16:32:35.572Z,48.00
2022-11-21T16:37:38.684Z,41.30
2022-11-21T16:42:41.690Z,46.00
2022-11-21T16:47:48.812Z,45.40
2022-11-21T16:52:52.416Z,41.10
2022-11-21T16:57:58.188Z,41.10
2022-11-21T17:03:01.504Z,36.90
2022-11-21T17:08:04.612Z,39.30
2022-11-21T17:13:07.820Z,40.70
2022-11-21T17:18:11.236Z,41.20
2022-11-21T17:23:14.348Z,39.60
2022-11-21T17:28:17.459Z,38.30
2022-11-21T17:33:22.005Z,40.80
2022-11-21T17:38:25.107Z,38.80
2022-11-21T17:43:29.156Z,39.70
2022-11-21T17:48:33.627Z,39.00
2022-11-21T17:53:38.779Z,31.10
2022-11-21T17:58:41.839Z,37.20
2022-11-21T18:03:47.099Z,39.10
2022-11-21T18:08:50.312Z,37.30
2022-11-21T18:13:53.525Z,40.40
2022-11-21T18:19:00.292Z,36.30
2022-11-21T18:24:03.937Z,40.40
2022-11-21T18:34:32.583Z,40.20
2022-11-21T18:39:35.690Z,36.10
2022-11-21T18:44:38.694Z,34.30
2022-11-21T18:49:41.710Z,36.30
2022-11-21T18:54:44.912Z,40.00
2022-11-21T18:59:48.122Z,33.90
2022-11-21T19:04:51.230Z,35.60
2022-11-21T19:09:54.244Z,35.90
2022-11-21T19:14:57.248Z,36.80
2022-11-21T19:20:00.251Z,33.00
2022-11-21T19:25:03.256Z,32.10
2022-11-21T19:30:06.843Z,35.50
2022-11-21T19:35:10.691Z,28.50
2022-11-21T19:40:13.918Z,36.10
2022-11-21T19:45:17.027Z,36.70
2022-11-21T19:50:20.029Z,35.90
2022-11-21T19:55:23.342Z,33.00
2022-11-21T20:00:26.250Z,38.80
2022-11-21T20:05:29.278Z,31.50
2022-11-21T20:10:35.530Z,32.10
2022-11-21T20:15:39.568Z,36.60
2022-11-21T20:20:42.575Z,33.10
2022-11-21T20:25:50.280Z,33.50
2022-11-21T20:30:53.299Z,29.80
2022-11-21T20:36:03.346Z,30.40
2022-11-21T20:41:06.384Z,33.00
2022-11-21T20:46:14.088Z,31.40
2022-11-21T20:52:31.467Z,32.60
2022-11-21T20:56:44.544Z,34.50
2022-11-21T21:01:47.966Z,31.50
2022-11-21T21:06:51.005Z,34.80
2022-11-21T21:11:54.226Z,32.30
2022-11-21T21:16:57.526Z,36.00
2022-11-21T21:22:00.744Z,34.70
2022-11-21T21:27:03.849Z,35.40
2022-11-21T21:32:07.171Z,35.90
2022-11-21T21:37:10.379Z,33.30
2022-11-21T21:42:13.583Z,32.80
2022-11-21T21:47:17.421Z,32.60
2022-11-21T21:52:20.620Z,32.20
2022-11-21T21:57:23.524Z,36.70
2022-11-21T22:02:26.633Z,33.80
2022-11-21T22:07:29.675Z,37.70
2022-11-21T22:12:32.955Z,34.60
2022-11-21T22:17:35.857Z,31.70
2022-11-21T22:22:38.969Z,37.60
2022-11-21T22:27:42.083Z,36.60
2022-11-21T22:32:45.388Z,30.90
2022-11-21T22:37:51.877Z,28.70
2022-11-21T22:42:54.883Z,34.10
2022-11-21T22:47:57.785Z,37.80
2022-11-21T22:53:00.896Z,36.70
2022-11-21T22:58:03.802Z,35.40
2022-11-21T23:03:06.911Z,36.30
2022-11-21T23:08:10.221Z,34.80
2022-11-21T23:13:13.231Z,32.90
2022-11-21T23:18:16.233Z,34.70
2022-11-21T23:23:20.533Z,35.90
2022-11-21T23:28:23.988Z,36.80
2022-11-21T23:33:26.995Z,34.30
2022-11-21T23:38:30.002Z,34.60
2022-11-21T23:43:33.218Z,37.10
2022-11-21T23:48:36.325Z,29.20
2022-11-21T23:53:39.531Z,35.40
2022-11-21T23:58:42.538Z,34.40
